createdAt,value
2019-04-25T00:01:15.298Z,20.10
2019-04-25T00:03:46.613Z,18.17
2019-04-25T00:06:16.674Z,28.30
2019-04-25T00:08:47.314Z,30.57
2019-04-25T00:11:17.771Z,24.67
2019-04-25T00:13:47.879Z,19.05
2019-04-25T00:16:21.163Z,26.25
2019-04-25T00:18:51.781Z,23.12
2019-04-25T00:21:40.370Z,24.90
2019-04-25T00:24:23.808Z,27.75
2019-04-25T00:26:53.728Z,22.82
2019-04-25T00:29:23.852Z,20.77
2019-04-25T00:31:54.110Z,24.10
2019-04-25T00:34:24.279Z,35.48
2019-04-25T00:36:54.217Z,25.70
2019-04-25T00:39:24.290Z,20.12
2019-04-25T00:41:54.065Z,22.13
2019-04-25T00:44:23.877Z,24.00
2019-04-25T00:46:56.617Z,21.35
2019-04-25T00:49:25.270Z,16.42
2019-04-25T00:51:55.056Z,19.05
2019-04-25T00:54:24.834Z,23.05
2019-04-25T00:56:54.578Z,26.60
2019-04-25T00:59:32.058Z,18.65
2019-04-25T01:02:21.332Z,17.25
2019-04-25T01:04:52.062Z,21.68
2019-04-25T01:07:23.835Z,18.12
2019-04-25T01:09:54.593Z,23.83
2019-04-25T01:12:24.561Z,19.75
2019-04-25T01:14:54.748Z,17.95
2019-04-25T01:17:24.978Z,20.72
2019-04-25T01:19:57.737Z,20.30
2019-04-25T01:22:26.267Z,20.02
2019-04-25T01:24:56.245Z,15.60
2019-04-25T01:27:26.007Z,21.48
2019-04-25T01:29:56.422Z,14.97
2019-04-25T01:32:34.674Z,11.48
2019-04-25T01:35:15.923Z,16.87
2019-04-25T01:37:58.868Z,16.27
2019-04-25T01:40:48.521Z,13.83
2019-04-25T01:43:25.894Z,19.60
2019-04-25T01:45:57.938Z,13.78
2019-04-25T01:48:27.897Z,15.03
2019-04-25T01:50:58.556Z,21.85
2019-04-25T01:53:28.663Z,20.27
2019-04-25T01:56:04.281Z,16.03
2019-04-25T01:58:30.192Z,16.10
2019-04-25T02:01:00.131Z,20.85
2019-04-25T02:03:30.000Z,17.50
2019-04-25T02:05:59.772Z,16.37
2019-04-25T02:08:29.629Z,14.30
2019-04-25T02:11:21.438Z,16.52
2019-04-25T02:13:51.510Z,16.30
2019-04-25T02:16:21.383Z,25.53
2019-04-25T02:18:51.933Z,24.83
2019-04-25T02:21:23.560Z,19.73
2019-04-25T02:23:55.430Z,19.35
2019-04-25T02:26:25.506Z,14.47
2019-04-25T02:28:56.455Z,18.57
2019-04-25T02:31:26.903Z,23.23
2019-04-25T02:33:58.837Z,17.50
2019-04-25T02:36:28.230Z,22.52
2019-04-25T02:39:01.277Z,18.37
2019-04-25T02:41:29.504Z,19.57
2019-04-25T02:44:03.773Z,12.70
2019-04-25T02:46:48.712Z,33.02
2019-04-25T02:49:39.707Z,16.73
2019-04-25T02:52:24.717Z,18.83
2019-04-25T02:54:55.772Z,22.30
2019-04-25T02:57:25.643Z,17.17
2019-04-25T02:59:56.936Z,19.10
2019-04-25T03:02:26.865Z,17.60
2019-04-25T03:04:58.345Z,20.90
2019-04-25T03:07:28.203Z,17.93
2019-04-25T03:09:58.593Z,21.95
2019-04-25T03:12:33.499Z,21.33
2019-04-25T03:15:02.925Z,18.57
2019-04-25T03:17:34.297Z,23.60
2019-04-25T03:20:24.382Z,23.32
2019-04-25T03:22:54.886Z,18.27
2019-04-25T03:25:24.969Z,20.20
2019-04-25T03:27:54.950Z,21.52
2019-04-25T03:30:25.558Z,23.10
2019-04-25T03:32:56.249Z,16.40
2019-04-25T03:35:26.294Z,19.33
2019-04-25T03:37:56.114Z,23.93
2019-04-25T03:40:25.827Z,18.10
2019-04-25T03:42:55.613Z,23.03
2019-04-25T03:45:25.353Z,20.20
2019-04-25T03:47:55.176Z,24.87
2019-04-25T03:50:25.206Z,20.80
2019-04-25T03:52:55.252Z,24.40
2019-04-25T03:55:25.068Z,22.70
2019-04-25T03:57:55.191Z,21.47
2019-04-25T04:00:27.860Z,18.00
2019-04-25T04:02:57.752Z,19.83
2019-04-25T04:05:27.769Z,22.07
2019-04-25T04:07:57.676Z,17.50
2019-04-25T04:10:27.498Z,19.60
2019-04-25T04:12:57.322Z,21.40
2019-04-25T04:15:27.214Z,18.70
2019-04-25T04:18:26.934Z,17.20
2019-04-25T04:21:18.378Z,18.40
2019-04-25T04:24:14.119Z,22.20
2019-04-25T04:27:05.311Z,20.53
2019-04-25T04:29:34.805Z,20.37
2019-04-25T04:32:04.678Z,25.53
2019-04-25T04:34:34.491Z,20.03
2019-04-25T04:37:04.365Z,19.00
2019-04-25T04:39:34.235Z,19.83
2019-04-25T04:42:03.979Z,19.70
2019-04-25T04:44:34.338Z,19.80
2019-04-25T04:47:04.519Z,22.53
2019-04-25T04:49:34.637Z,19.67
2019-04-25T04:52:06.472Z,16.60
2019-04-25T04:54:36.057Z,17.93
2019-04-25T04:57:18.157Z,17.77
2019-04-25T04:59:37.617Z,19.40
2019-04-25T05:02:33.390Z,19.07
2019-04-25T05:05:23.499Z,21.20
2019-04-25T05:07:59.798Z,27.55
2019-04-25T05:10:30.023Z,20.17
2019-04-25T05:12:59.897Z,16.53
2019-04-25T05:15:29.715Z,24.27
2019-04-25T05:17:59.680Z,33.33
2019-04-25T05:20:29.514Z,25.23
2019-04-25T05:22:59.303Z,21.87
2019-04-25T05:25:29.131Z,21.80
2019-04-25T05:28:02.986Z,24.47
2019-04-25T05:30:36.388Z,19.50
2019-04-25T05:33:06.308Z,17.45
2019-04-25T05:35:36.278Z,28.13
2019-04-25T05:38:06.171Z,15.93
2019-04-25T05:40:49.149Z,25.90
2019-04-25T05:43:18.937Z,19.73
2019-04-25T05:45:48.751Z,23.47
2019-04-25T05:48:18.993Z,21.07
2019-04-25T05:50:48.950Z,22.33
2019-04-25T05:53:19.750Z,22.03
2019-04-25T05:55:50.109Z,22.52
2019-04-25T05:58:20.427Z,23.43
2019-04-25T06:00:51.223Z,27.85
2019-04-25T06:03:21.415Z,22.48
2019-04-25T06:05:51.299Z,20.55
2019-04-25T06:08:25.462Z,25.65
2019-04-25T06:11:16.179Z,31.17
2019-04-25T06:13:53.134Z,24.95
2019-04-25T06:16:34.497Z,21.80
2019-04-25T06:19:27.894Z,25.97
2019-04-25T06:21:58.477Z,22.47
2019-04-25T06:24:36.936Z,18.70
2019-04-25T06:27:26.675Z,26.42
2019-04-25T06:30:04.359Z,24.63
2019-04-25T06:32:35.470Z,24.77
2019-04-25T06:35:08.788Z,20.25
2019-04-25T06:37:38.678Z,16.77
2019-04-25T06:40:09.755Z,24.45
2019-04-25T06:42:40.075Z,25.68
2019-04-25T06:45:19.705Z,25.10
2019-04-25T06:48:11.634Z,25.20
2019-04-25T06:50:41.486Z,21.55
2019-04-25T06:53:11.314Z,20.50
2019-04-25T06:55:41.194Z,34.63
2019-04-25T06:58:14.045Z,27.00
2019-04-25T07:00:55.796Z,27.40
2019-04-25T07:03:15.496Z,29.95
2019-04-25T07:05:45.720Z,27.27
2019-04-25T07:08:15.535Z,27.07
2019-04-25T07:10:45.417Z,26.48
2019-04-25T07:13:15.379Z,26.70
2019-04-25T07:15:45.199Z,16.70
2019-04-25T07:18:15.053Z,25.20
2019-04-25T07:20:45.283Z,24.70
2019-04-25T07:23:15.485Z,27.40
2019-04-25T07:25:53.700Z,22.00
2019-04-25T07:28:45.439Z,25.72
2019-04-25T07:31:40.841Z,26.37
2019-04-25T07:34:22.051Z,22.90
2019-04-25T07:36:53.413Z,31.73
2019-04-25T07:39:25.512Z,29.48
2019-04-25T07:41:55.574Z,29.70
2019-04-25T07:44:38.061Z,23.47
2019-04-25T07:46:56.856Z,21.85
2019-04-25T07:49:26.854Z,27.70
2019-04-25T07:51:56.886Z,29.70
2019-04-25T07:54:27.877Z,26.37
2019-04-25T07:56:58.215Z,21.62
2019-04-25T07:59:28.971Z,24.10
2019-04-25T08:01:59.165Z,22.95
2019-04-25T08:04:29.074Z,25.55
2019-04-25T08:06:58.783Z,26.12
2019-04-25T08:09:29.424Z,14.38
2019-04-25T08:11:59.476Z,17.52
2019-04-25T08:14:45.876Z,20.97
2019-04-25T08:17:16.490Z,25.80
2019-04-25T08:19:47.131Z,21.50
2019-04-25T08:22:17.171Z,22.35
2019-04-25T08:24:47.214Z,23.07
2019-04-25T08:27:17.006Z,25.72
2019-04-25T08:29:46.706Z,20.60
2019-04-25T08:32:16.516Z,23.70
2019-04-25T08:34:46.254Z,19.32
2019-04-25T08:37:18.945Z,23.30
2019-04-25T08:39:47.534Z,17.55
2019-04-25T08:42:17.271Z,23.18
2019-04-25T08:44:47.095Z,19.60
2019-04-25T08:47:16.845Z,18.70
2019-04-25T08:49:55.092Z,19.62
2019-04-25T08:52:24.819Z,19.20
2019-04-25T08:55:32.979Z,21.95
2019-04-25T08:58:23.594Z,23.18
2019-04-25T09:01:23.546Z,19.45
2019-04-25T09:03:59.540Z,24.67
2019-04-25T09:06:29.421Z,23.57
2019-04-25T09:09:00.127Z,15.93
2019-04-25T09:11:32.285Z,18.20
2019-04-25T09:14:01.322Z,13.05
2019-04-25T09:16:31.158Z,17.23
2019-04-25T09:19:00.963Z,17.12
2019-04-25T09:21:30.831Z,15.65
2019-04-25T09:24:00.594Z,16.02
2019-04-25T09:26:30.264Z,15.80
2019-04-25T09:29:00.210Z,17.05
2019-04-25T09:31:29.988Z,14.90
2019-04-25T09:33:59.819Z,14.15
2019-04-25T09:36:29.519Z,16.10
2019-04-25T09:39:03.788Z,19.23
2019-04-25T09:41:33.706Z,19.48
2019-04-25T09:44:05.131Z,19.92
2019-04-25T09:46:37.330Z,20.90
2019-04-25T09:49:26.017Z,17.95
2019-04-25T09:51:59.318Z,14.75
2019-04-25T09:54:53.967Z,14.28
2019-04-25T09:57:45.991Z,13.72
2019-04-25T10:00:36.503Z,12.07
2019-04-25T10:03:06.880Z,9.88
2019-04-25T10:05:37.098Z,14.25
2019-04-25T10:08:07.214Z,17.92
2019-04-25T10:10:38.759Z,9.83
2019-04-25T10:13:08.949Z,12.47
2019-04-25T10:15:57.986Z,16.35
2019-04-25T10:18:27.772Z,16.85
2019-04-25T10:20:57.530Z,15.35
2019-04-25T10:23:27.407Z,9.30
2019-04-25T10:25:59.183Z,13.45
2019-04-25T10:28:29.424Z,10.35
2019-04-25T10:30:59.215Z,11.22
2019-04-25T10:33:29.017Z,12.05
2019-04-25T10:36:01.125Z,8.03
2019-04-25T10:38:30.665Z,9.88
2019-04-25T10:41:00.400Z,9.63
2019-04-25T10:43:30.284Z,9.48
2019-04-25T10:46:00.080Z,12.35
2019-04-25T10:48:29.920Z,12.20
2019-04-25T10:50:59.715Z,12.93
2019-04-25T10:53:29.635Z,12.33
2019-04-25T10:55:59.337Z,10.18
2019-04-25T10:58:29.118Z,7.85
2019-04-25T11:00:59.002Z,8.08
2019-04-25T11:04:05.589Z,14.55
2019-04-25T11:06:35.479Z,16.70
2019-04-25T11:09:09.039Z,8.40
2019-04-25T11:11:38.777Z,12.85
2019-04-25T11:14:08.635Z,13.40
2019-04-25T11:16:38.390Z,17.02
2019-04-25T11:19:08.330Z,11.03
2019-04-25T11:21:38.215Z,11.90
2019-04-25T11:24:08.093Z,9.15
2019-04-25T11:26:38.049Z,9.58
2019-04-25T11:29:07.906Z,8.05
2019-04-25T11:31:47.430Z,9.30
2019-04-25T11:34:18.370Z,10.93
2019-04-25T11:36:48.500Z,6.45
2019-04-25T11:39:37.416Z,7.78
2019-04-25T11:42:10.958Z,8.33
2019-04-25T11:44:40.904Z,13.32
2019-04-25T11:47:11.223Z,10.90
2019-04-25T11:49:42.138Z,8.95
2019-04-25T11:52:21.403Z,7.28
2019-04-25T11:54:45.804Z,11.03
2019-04-25T11:57:15.818Z,7.25
2019-04-25T11:59:48.886Z,9.15
2019-04-25T12:02:17.251Z,8.30
2019-04-25T12:04:47.773Z,8.60
2019-04-25T12:07:17.983Z,7.22
2019-04-25T12:09:48.103Z,7.42
2019-04-25T12:12:17.959Z,7.67
2019-04-25T12:14:47.678Z,7.20
2019-04-25T12:17:17.441Z,6.85
2019-04-25T12:19:49.132Z,6.55
2019-04-25T12:22:18.963Z,7.90
2019-04-25T12:24:48.834Z,5.78
2019-04-25T12:27:18.647Z,6.20
2019-04-25T12:29:48.398Z,7.03
2019-04-25T12:32:18.235Z,6.70
2019-04-25T12:34:47.985Z,6.08
2019-04-25T12:37:17.725Z,8.93
2019-04-25T12:39:48.435Z,6.15
2019-04-25T12:42:18.339Z,6.00
2019-04-25T12:44:58.122Z,5.67
2019-04-25T12:47:29.670Z,7.90
2019-04-25T12:49:59.401Z,5.15
2019-04-25T12:52:29.154Z,7.72
2019-04-25T12:54:58.898Z,7.45
2019-04-25T12:57:28.860Z,6.35
2019-04-25T12:59:58.644Z,6.87
2019-04-25T13:02:28.629Z,10.38
2019-04-25T13:04:58.263Z,7.22
2019-04-25T13:07:27.982Z,9.88
2019-04-25T13:09:57.736Z,8.23
2019-04-25T13:12:27.521Z,7.83
2019-04-25T13:14:57.234Z,10.82
2019-04-25T13:17:27.018Z,10.48
2019-04-25T13:19:56.803Z,11.08
2019-04-25T13:22:26.561Z,10.72
2019-04-25T13:24:56.649Z,6.72
2019-04-25T13:27:37.514Z,10.25
2019-04-25T13:30:26.788Z,8.60
2019-04-25T13:33:24.430Z,9.38
2019-04-25T13:36:04.110Z,8.55
2019-04-25T13:38:34.551Z,10.08
2019-04-25T13:41:04.459Z,10.80
2019-04-25T13:43:34.682Z,6.87
2019-04-25T13:46:04.520Z,13.15
2019-04-25T13:48:35.384Z,9.43
2019-04-25T13:51:05.784Z,11.08
2019-04-25T13:53:37.938Z,9.13
2019-04-25T13:56:08.642Z,7.90
2019-04-25T13:58:38.494Z,11.03
2019-04-25T14:01:13.087Z,9.73
2019-04-25T14:03:41.290Z,11.35
2019-04-25T14:06:13.629Z,11.97
2019-04-25T14:08:43.583Z,10.70
2019-04-25T14:11:13.986Z,7.97
2019-04-25T14:13:44.397Z,13.38
2019-04-25T14:16:45.456Z,6.37
2019-04-25T14:19:33.577Z,8.85
2019-04-25T14:22:05.606Z,9.55
2019-04-25T14:24:35.914Z,14.13
2019-04-25T14:27:06.149Z,12.45
2019-04-25T14:29:36.059Z,8.85
2019-04-25T14:32:07.321Z,12.73
2019-04-25T14:34:37.299Z,8.83
2019-04-25T14:37:07.069Z,11.97
2019-04-25T14:39:36.880Z,18.92
2019-04-25T14:42:07.111Z,8.28
2019-04-25T14:44:36.932Z,10.03
2019-04-25T14:47:06.725Z,10.03
2019-04-25T14:49:36.491Z,9.98
2019-04-25T14:52:06.263Z,7.17
2019-04-25T14:54:41.929Z,8.18
2019-04-25T14:57:31.881Z,8.70
2019-04-25T15:00:04.538Z,7.62
2019-04-25T15:02:34.191Z,12.98
2019-04-25T15:05:04.741Z,7.45
2019-04-25T15:07:34.568Z,7.20
2019-04-25T15:10:04.664Z,7.42
2019-04-25T15:12:34.303Z,5.97
2019-04-25T15:15:04.054Z,8.78
2019-04-25T15:17:43.906Z,7.70
2019-04-25T15:20:05.666Z,6.25
2019-04-25T15:22:35.439Z,16.35
2019-04-25T15:25:06.403Z,11.70
2019-04-25T15:27:37.761Z,8.28
2019-04-25T15:30:09.685Z,11.18
2019-04-25T15:32:39.528Z,6.62
2019-04-25T15:35:11.271Z,7.72
2019-04-25T15:37:50.090Z,13.38
2019-04-25T15:40:32.251Z,7.17
2019-04-25T15:43:27.544Z,7.72
2019-04-25T15:46:19.490Z,8.40
2019-04-25T15:48:49.226Z,7.08
2019-04-25T15:51:19.082Z,4.75
2019-04-25T15:53:48.755Z,6.95
2019-04-25T15:56:18.514Z,7.15
2019-04-25T15:58:48.292Z,6.40
2019-04-25T16:01:18.062Z,8.40
2019-04-25T16:03:48.170Z,8.60
2019-04-25T16:06:18.064Z,7.78
2019-04-25T16:08:48.060Z,7.65
2019-04-25T16:11:17.808Z,4.97
2019-04-25T16:13:47.546Z,6.95
2019-04-25T16:16:17.378Z,7.37
2019-04-25T16:18:47.101Z,6.35
2019-04-25T16:21:17.025Z,11.10
2019-04-25T16:23:46.870Z,8.95
2019-04-25T16:26:16.734Z,8.98
2019-04-25T16:28:46.535Z,5.78
2019-04-25T16:31:19.813Z,9.73
2019-04-25T16:33:49.671Z,4.53
2019-04-25T16:36:19.657Z,4.50
2019-04-25T16:38:49.371Z,13.90
2019-04-25T16:41:19.661Z,5.15
2019-04-25T16:43:52.950Z,6.72
2019-04-25T16:46:24.198Z,6.40
2019-04-25T16:48:54.088Z,8.88
2019-04-25T16:51:25.168Z,9.40
2019-04-25T16:53:55.023Z,4.40
2019-04-25T16:56:24.842Z,10.43
2019-04-25T16:58:54.742Z,6.22
2019-04-25T17:01:24.815Z,7.12
2019-04-25T17:03:54.631Z,6.37
2019-04-25T17:06:24.656Z,11.12
2019-04-25T17:08:54.932Z,7.40
2019-04-25T17:11:24.774Z,11.22
2019-04-25T17:14:01.259Z,5.12
2019-04-25T17:16:45.263Z,7.50
2019-04-25T17:19:22.027Z,8.93
2019-04-25T17:21:52.120Z,8.15
2019-04-25T17:24:21.932Z,10.50
2019-04-25T17:26:52.650Z,11.95
2019-04-25T17:29:23.028Z,7.45
2019-04-25T17:32:19.292Z,12.43
2019-04-25T17:35:22.151Z,10.50
2019-04-25T17:37:55.892Z,10.78
2019-04-25T17:40:28.113Z,6.80
2019-04-25T17:43:10.187Z,6.55
2019-04-25T17:45:33.371Z,12.95
2019-04-25T17:48:04.292Z,11.20
2019-04-25T17:50:34.230Z,11.22
2019-04-25T17:53:04.251Z,12.58
2019-04-25T17:55:34.964Z,14.18
2019-04-25T17:58:07.468Z,11.25
2019-04-25T18:00:42.540Z,11.57
2019-04-25T18:03:12.725Z,7.47
2019-04-25T18:05:42.463Z,6.33
2019-04-25T18:08:13.666Z,12.68
2019-04-25T18:10:44.254Z,6.55
2019-04-25T18:13:14.245Z,6.12
2019-04-25T18:16:00.293Z,8.15
2019-04-25T18:18:48.451Z,8.10
2019-04-25T18:21:18.154Z,6.03
2019-04-25T18:24:18.907Z,13.58
2019-04-25T18:27:10.201Z,10.10
2019-04-25T18:29:39.919Z,8.95
2019-04-25T18:32:10.311Z,11.83
2019-04-25T18:34:52.153Z,10.15
2019-04-25T18:37:40.786Z,11.85
2019-04-25T18:40:18.707Z,7.12
2019-04-25T18:43:13.563Z,6.62
2019-04-25T18:45:46.505Z,8.03
2019-04-25T18:48:16.475Z,7.60
2019-04-25T18:50:46.780Z,11.40
2019-04-25T18:53:45.219Z,10.80
2019-04-25T18:56:32.621Z,9.43
2019-04-25T18:59:21.223Z,7.83
2019-04-25T19:02:02.975Z,10.15
2019-04-25T19:04:52.471Z,8.65
2019-04-25T19:07:22.964Z,10.38
2019-04-25T19:09:54.466Z,10.50
2019-04-25T19:12:26.514Z,10.75
2019-04-25T19:14:56.693Z,8.80
2019-04-25T19:17:45.338Z,13.22
2019-04-25T19:20:18.671Z,11.00
2019-04-25T19:22:48.622Z,8.93
2019-04-25T19:25:43.837Z,6.90
2019-04-25T19:28:58.693Z,10.15
2019-04-25T19:34:51.636Z,13.78
2019-04-25T19:37:36.974Z,13.22
2019-04-25T19:40:41.136Z,7.62
2019-04-25T19:43:46.605Z,14.98
2019-04-25T19:46:55.506Z,11.18
2019-04-25T19:49:50.639Z,12.43
2019-04-25T19:52:29.649Z,8.38
2019-04-25T19:55:22.904Z,5.55
2019-04-25T19:58:01.093Z,11.08
2019-04-25T20:00:37.329Z,16.87
2019-04-25T20:03:29.581Z,11.53
2019-04-25T20:06:19.539Z,15.08
2019-04-25T20:09:10.647Z,7.83
2019-04-25T20:11:49.523Z,10.45
2019-04-25T20:14:40.288Z,6.90
2019-04-25T20:17:32.618Z,12.63
2019-04-25T20:20:04.991Z,9.33
2019-04-25T20:22:59.075Z,11.28
2019-04-25T20:34:50.852Z,13.48
2019-04-25T20:37:49.241Z,11.03
2019-04-25T20:40:36.403Z,12.88
2019-04-25T20:43:57.046Z,7.25
2019-04-25T20:53:24.330Z,7.80
2019-04-25T20:59:56.014Z,12.03
2019-04-25T21:06:22.128Z,20.92
2019-04-25T21:09:40.204Z,9.30
2019-04-25T21:12:47.266Z,12.43
2019-04-25T21:15:58.582Z,11.85
2019-04-25T21:19:30.672Z,7.17
2019-04-25T21:22:33.653Z,9.50
2019-04-25T21:25:37.205Z,7.58
2019-04-25T21:32:23.543Z,9.85
2019-04-25T21:35:22.980Z,10.88
2019-04-25T21:38:36.693Z,9.65
2019-04-25T21:41:33.891Z,11.03
2019-04-25T21:57:48.351Z,9.18
2019-04-25T22:04:38.259Z,10.95
2019-04-25T22:10:01.973Z,14.98
2019-04-25T22:13:16.572Z,11.57
2019-04-25T22:15:57.228Z,8.25
2019-04-25T22:21:41.916Z,8.70
2019-04-25T22:24:57.179Z,10.68
2019-04-25T22:28:17.843Z,16.15
2019-04-25T22:31:17.989Z,12.10
2019-04-25T22:34:23.953Z,11.65
2019-04-25T22:38:00.400Z,10.20
2019-04-25T22:40:59.182Z,12.03
2019-04-25T22:46:43.907Z,9.38
2019-04-25T22:49:44.411Z,11.85
2019-04-25T22:53:22.565Z,7.62
2019-04-25T22:56:41.706Z,10.00
2019-04-25T23:00:01.840Z,13.62
2019-04-25T23:03:27.688Z,8.75
2019-04-25T23:06:33.321Z,10.08
2019-04-25T23:10:06.274Z,8.05
2019-04-25T23:13:13.375Z,9.53
2019-04-25T23:25:24.653Z,9.35
2019-04-25T23:28:48.257Z,13.70
2019-04-25T23:32:02.101Z,8.83
2019-04-25T23:37:59.062Z,13.60
2019-04-25T23:40:50.502Z,16.67
2019-04-25T23:44:04.215Z,16.27
2019-04-25T23:53:10.730Z,14.38
